sensor_id;sensor_type;location;lat;lon;timestamp;pressure;altitude;pressure_sealevel;temperature;humidity
24825;BME280;12910;57.690;11.974;2023-03-19T00:01:15;100672.47;;;5.82;100.00
24825;BME280;12910;57.690;11.974;2023-03-19T00:03:41;100674.97;;;5.80;100.00
24825;BME280;12910;57.690;11.974;2023-03-19T00:06:06;100677.50;;;5.80;100.00
24825;BME280;12910;57.690;11.974;2023-03-19T00:08:32;100677.56;;;5.82;100.00
24825;BME280;12910;57.690;11.974;2023-03-19T00:10:57;100677.56;;;5.82;100.00
24825;BME280;12910;57.690;11.974;2023-03-19T00:13:22;100679.25;;;5.81;100.00
24825;BME280;12910;57.690;11.974;2023-03-19T00:15:48;100684.25;;;5.80;100.00
24825;BME280;12910;57.690;11.974;2023-03-19T00:18:13;100684.16;;;5.76;100.00
24825;BME280;12910;57.690;11.974;2023-03-19T00:20:39;100690.88;;;5.74;100.00
24825;BME280;12910;57.690;11.974;2023-03-19T00:23:04;100702.13;;;5.81;100.00
24825;BME280;12910;57.690;11.974;2023-03-19T00:25:30;100696.75;;;5.73;100.00
24825;BME280;12910;57.690;11.974;2023-03-19T00:27:56;100699.50;;;5.80;100.00
24825;BME280;12910;57.690;11.974;2023-03-19T00:30:21;100696.16;;;5.81;100.00
24825;BME280;12910;57.690;11.974;2023-03-19T00:32:48;100698.66;;;5.79;100.00
24825;BME280;12910;57.690;11.974;2023-03-19T00:35:13;100697.84;;;5.80;100.00
24825;BME280;12910;57.690;11.974;2023-03-19T00:37:40;100697.91;;;5.82;100.00
24825;BME280;12910;57.690;11.974;2023-03-19T00:40:06;100691.84;;;5.78;100.00
24825;BME280;12910;57.690;11.974;2023-03-19T00:42:32;100695.19;;;5.77;100.00
24825;BME280;12910;57.690;11.974;2023-03-19T00:44:58;100694.34;;;5.76;100.00
24825;BME280;12910;57.690;11.974;2023-03-19T00:47:23;100695.22;;;5.78;100.00
24825;BME280;12910;57.690;11.974;2023-03-19T00:49:49;100702.13;;;5.81;100.00
24825;BME280;12910;57.690;11.974;2023-03-19T00:52:14;100693.44;;;5.76;100.00
24825;BME280;12910;57.690;11.974;2023-03-19T00:54:40;100700.41;;;5.80;100.00
24825;BME280;12910;57.690;11.974;2023-03-19T00:57:06;100701.28;;;5.82;100.00
24825;BME280;12910;57.690;11.974;2023-03-19T00:59:31;100700.50;;;5.83;100.00
24825;BME280;12910;57.690;11.974;2023-03-19T01:01:57;100701.38;;;5.84;100.00
24825;BME280;12910;57.690;11.974;2023-03-19T01:04:22;100702.34;;;5.87;100.00
24825;BME280;12910;57.690;11.974;2023-03-19T01:06:48;100703.03;;;5.83;100.00
24825;BME280;12910;57.690;11.974;2023-03-19T01:09:13;100703.84;;;5.82;100.00
24825;BME280;12910;57.690;11.974;2023-03-19T01:11:40;100702.97;;;5.82;100.00
24825;BME280;12910;57.690;11.974;2023-03-19T01:14:05;100706.38;;;5.82;100.00
24825;BME280;12910;57.690;11.974;2023-03-19T01:16:30;100702.13;;;5.81;100.00
24825;BME280;12910;57.690;11.974;2023-03-19T01:18:56;100690.16;;;5.78;100.00
24825;BME280;12910;57.690;11.974;2023-03-19T01:21:22;100707.22;;;5.81;100.00
24825;BME280;12910;57.690;11.974;2023-03-19T01:23:48;100698.66;;;5.79;100.00
24825;BME280;12910;57.690;11.974;2023-03-19T01:26:13;100702.88;;;5.78;100.00
24825;BME280;12910;57.690;11.974;2023-03-19T01:28:38;100690.56;;;5.67;100.00
24825;BME280;12910;57.690;11.974;2023-03-19T01:31:06;100703.63;;;5.76;100.00
24825;BME280;12910;57.690;11.974;2023-03-19T01:33:32;100717.16;;;5.75;100.00
24825;BME280;12910;57.690;11.974;2023-03-19T01:35:58;100705.22;;;5.74;100.00
24825;BME280;12910;57.690;11.974;2023-03-19T01:38:27;100701.78;;;5.72;100.00
24825;BME280;12910;57.690;11.974;2023-03-19T01:40:52;100692.44;;;5.71;100.00
24825;BME280;12910;57.690;11.974;2023-03-19T01:43:28;100706.88;;;5.72;100.00
24825;BME280;12910;57.690;11.974;2023-03-19T01:46:14;100682.94;;;5.67;100.00
24825;BME280;12910;57.690;11.974;2023-03-19T01:48:43;100688.94;;;5.69;100.00
24825;BME280;12910;57.690;11.974;2023-03-19T01:51:14;100703.28;;;5.67;100.00
24825;BME280;12910;57.690;11.974;2023-03-19T01:53:43;100698.31;;;5.70;100.00
24825;BME280;12910;57.690;11.974;2023-03-19T01:56:26;100691.50;;;5.69;100.00
24825;BME280;12910;57.690;11.974;2023-03-19T01:58:56;100695.69;;;5.68;100.00
24825;BME280;12910;57.690;11.974;2023-03-19T02:01:21;100700.88;;;5.70;100.00
24825;BME280;12910;57.690;11.974;2023-03-19T02:03:49;100691.38;;;5.66;100.00
24825;BME280;12910;57.690;11.974;2023-03-19T02:06:16;100691.28;;;5.63;100.00
24825;BME280;12910;57.690;11.974;2023-03-19T02:08:44;100704.09;;;5.66;100.00
24825;BME280;12910;57.690;11.974;2023-03-19T02:11:11;100704.00;;;5.63;100.00
24825;BME280;12910;57.690;11.974;2023-03-19T02:13:36;100699.47;;;5.55;100.00
24825;BME280;12910;57.690;11.974;2023-03-19T02:16:02;100709.88;;;5.61;100.00
24825;BME280;12910;57.690;11.974;2023-03-19T02:18:29;100707.34;;;5.61;100.00
24825;BME280;12910;57.690;11.974;2023-03-19T02:23:31;100713.31;;;5.64;100.00
24825;BME280;12910;57.690;11.974;2023-03-19T02:26:05;100715.81;;;5.62;100.00
24825;BME280;12910;57.690;11.974;2023-03-19T02:28:32;100715.69;;;5.59;100.00
24825;BME280;12910;57.690;11.974;2023-03-19T02:30:58;100711.38;;;5.56;100.00
24825;BME280;12910;57.690;11.974;2023-03-19T02:33:24;100711.25;;;5.53;100.00
24825;BME280;12910;57.690;11.974;2023-03-19T02:35:51;100711.31;;;5.55;100.00
24825;BME280;12910;57.690;11.974;2023-03-19T02:38:17;100709.63;;;5.55;100.00
24825;BME280;12910;57.690;11.974;2023-03-19T02:41:02;100708.03;;;5.57;100.00
24825;BME280;12910;57.690;11.974;2023-03-19T02:43:29;100708.06;;;5.59;100.00
24825;BME280;12910;57.690;11.974;2023-03-19T02:45:55;100709.75;;;5.58;100.00
24825;BME280;12910;57.690;11.974;2023-03-19T02:48:21;100709.75;;;5.58;100.00
24825;BME280;12910;57.690;11.974;2023-03-19T02:50:46;100710.56;;;5.57;100.00
24825;BME280;12910;57.690;11.974;2023-03-19T02:53:12;100712.25;;;5.57;100.00
24825;BME280;12910;57.690;11.974;2023-03-19T02:55:37;100717.09;;;5.51;100.00
24825;BME280;12910;57.690;11.974;2023-03-19T02:58:02;100713.78;;;5.53;100.00
24825;BME280;12910;57.690;11.974;2023-03-19T03:00:28;100714.63;;;5.52;100.00
24825;BME280;12910;57.690;11.974;2023-03-19T03:02:55;100705.13;;;5.48;100.00
24825;BME280;12910;57.690;11.974;2023-03-19T03:05:21;100704.50;;;5.54;100.00
24825;BME280;12910;57.690;11.974;2023-03-19T03:07:46;100709.53;;;5.52;100.00
24825;BME280;12910;57.690;11.974;2023-03-19T03:10:14;100716.31;;;5.53;100.00
24825;BME280;12910;57.690;11.974;2023-03-19T03:12:39;100717.97;;;5.51;100.00
24825;BME280;12910;57.690;11.974;2023-03-19T03:15:06;100716.31;;;5.53;100.00
24825;BME280;12910;57.690;11.974;2023-03-19T03:17:35;100716.28;;;5.52;100.00
24825;BME280;12910;57.690;11.974;2023-03-19T03:20:01;100717.16;;;5.52;100.00
24825;BME280;12910;57.690;11.974;2023-03-19T03:22:26;100707.66;;;5.48;100.00
24825;BME280;12910;57.690;11.974;2023-03-19T03:24:51;100715.28;;;5.48;100.00
24825;BME280;12910;57.690;11.974;2023-03-19T03:27:17;100711.91;;;5.48;100.00
24825;BME280;12910;57.690;11.974;2023-03-19T03:29:42;100721.22;;;5.49;100.00
24825;BME280;12910;57.690;11.974;2023-03-19T03:32:08;100718.59;;;5.45;100.00
24825;BME280;12910;57.690;11.974;2023-03-19T03:34:33;100723.06;;;5.51;100.00
24825;BME280;12910;57.690;11.974;2023-03-19T03:36:58;100717.97;;;5.51;100.00
24825;BME280;12910;57.690;11.974;2023-03-19T03:39:24;100717.22;;;5.54;100.00
24825;BME280;12910;57.690;11.974;2023-03-19T03:41:50;100701.47;;;5.41;100.00
24825;BME280;12910;57.690;11.974;2023-03-19T03:44:16;100698.13;;;5.42;100.00
24825;BME280;12910;57.690;11.974;2023-03-19T03:46:42;100714.50;;;5.49;100.00
24825;BME280;12910;57.690;11.974;2023-03-19T03:49:08;100715.34;;;5.50;100.00
24825;BME280;12910;57.690;11.974;2023-03-19T03:51:34;100720.56;;;5.53;100.00
24825;BME280;12910;57.690;11.974;2023-03-19T03:53:59;100709.53;;;5.52;100.00
24825;BME280;12910;57.690;11.974;2023-03-19T03:56:25;100713.72;;;5.52;100.00
24825;BME280;12910;57.690;11.974;2023-03-19T03:58:51;100722.13;;;5.49;100.00
24825;BME280;12910;57.690;11.974;2023-03-19T04:01:17;100718.81;;;5.52;100.00
24825;BME280;12910;57.690;11.974;2023-03-19T04:03:43;100712.63;;;5.45;100.00
24825;BME280;12910;57.690;11.974;2023-03-19T04:06:13;100716.09;;;5.47;100.00
24825;BME280;12910;57.690;11.974;2023-03-19T04:08:39;100723.69;;;5.45;100.00
24825;BME280;12910;57.690;11.974;2023-03-19T04:11:06;100731.47;;;5.50;100.00
24825;BME280;12910;57.690;11.974;2023-03-19T04:13:31;100723.69;;;5.45;100.00
24825;BME280;12910;57.690;11.974;2023-03-19T04:16:03;100726.41;;;5.50;100.00
24825;BME280;12910;57.690;11.974;2023-03-19T04:18:29;100724.66;;;5.49;100.00
24825;BME280;12910;57.690;11.974;2023-03-19T04:20:54;100731.47;;;5.50;100.00
24825;BME280;12910;57.690;11.974;2023-03-19T04:23:21;100728.13;;;5.51;100.00
24825;BME280;12910;57.690;11.974;2023-03-19T04:25:46;100738.19;;;5.48;100.00
24825;BME280;12910;57.690;11.974;2023-03-19T04:28:12;100734.81;;;5.49;100.00
24825;BME280;12910;57.690;11.974;2023-03-19T04:30:37;100722.16;;;5.51;100.00
24825;BME280;12910;57.690;11.974;2023-03-19T04:33:03;100716.97;;;5.48;100.00
24825;BME280;12910;57.690;11.974;2023-03-19T04:35:29;100731.47;;;5.50;100.00
24825;BME280;12910;57.690;11.974;2023-03-19T04:37:55;100733.91;;;5.47;100.00
24825;BME280;12910;57.690;11.974;2023-03-19T04:40:20;100730.25;;;5.40;100.00
24825;BME280;12910;57.690;11.974;2023-03-19T04:42:46;100744.78;;;5.43;100.00
24825;BME280;12910;57.690;11.974;2023-03-19T04:45:11;100738.84;;;5.44;100.00
24825;BME280;12910;57.690;11.974;2023-03-19T04:47:37;100733.09;;;5.48;100.00
24825;BME280;12910;57.690;11.974;2023-03-19T04:50:04;100731.97;;;5.41;100.00
24825;BME280;12910;57.690;11.974;2023-03-19T04:52:29;100732.72;;;5.39;100.00
24825;BME280;12910;57.690;11.974;2023-03-19T04:54:55;100731.75;;;5.35;100.00
24825;BME280;12910;57.690;11.974;2023-03-19T04:57:20;100738.56;;;5.36;100.00
24825;BME280;12910;57.690;11.974;2023-03-19T04:59:46;100737.81;;;5.39;100.00
24825;BME280;12910;57.690;11.974;2023-03-19T05:02:11;100732.78;;;5.40;100.00
24825;BME280;12910;57.690;11.974;2023-03-19T05:04:37;100732.69;;;5.37;100.00
24825;BME280;12910;57.690;11.974;2023-03-19T05:07:02;100731.00;;;5.38;100.00
24825;BME280;12910;57.690;11.974;2023-03-19T05:09:28;100735.09;;;5.34;100.00
24825;BME280;12910;57.690;11.974;2023-03-19T05:11:55;100737.69;;;5.36;100.00
24825;BME280;12910;57.690;11.974;2023-03-19T05:14:21;100737.81;;;5.39;100.00
24825;BME280;12910;57.690;11.974;2023-03-19T05:16:47;100740.34;;;5.39;100.00
24825;BME280;12910;57.690;11.974;2023-03-19T05:19:12;100741.34;;;5.42;100.00
24825;BME280;12910;57.690;11.974;2023-03-19T05:21:38;100744.69;;;5.41;100.00
24825;BME280;12910;57.690;11.974;2023-03-19T05:24:05;100742.16;;;5.41;100.00
24825;BME280;12910;57.690;11.974;2023-03-19T05:26:30;100750.56;;;5.40;100.00
24825;BME280;12910;57.690;11.974;2023-03-19T05:28:56;100753.91;;;5.39;100.00
24825;BME280;12910;57.690;11.974;2023-03-19T05:31:22;100754.94;;;5.43;100.00
24825;BME280;12910;57.690;11.974;2023-03-19T05:33:48;100759.09;;;5.41;100.00
24825;BME280;12910;57.690;11.974;2023-03-19T05:36:13;100755.59;;;5.39;100.00
24825;BME280;12910;57.690;11.974;2023-03-19T05:38:39;100755.56;;;5.37;100.00
24825;BME280;12910;57.690;11.974;2023-03-19T05:41:05;100769.25;;;5.41;100.00
24825;BME280;12910;57.690;11.974;2023-03-19T05:43:31;100759.84;;;5.38;100.00
24825;BME280;12910;57.690;11.974;2023-03-19T05:45:56;100763.41;;;5.43;100.00
24825;BME280;12910;57.690;11.974;2023-03-19T05:48:23;100764.28;;;5.44;100.00
24825;BME280;12910;57.690;11.974;2023-03-19T05:50:48;100758.16;;;5.39;100.00
24825;BME280;12910;57.690;11.974;2023-03-19T05:53:14;100756.41;;;5.38;100.00
24825;BME280;12910;57.690;11.974;2023-03-19T05:55:39;100754.81;;;5.40;100.00
24825;BME280;12910;57.690;11.974;2023-03-19T05:58:05;100751.47;;;5.41;100.00
24825;BME280;12910;57.690;11.974;2023-03-19T06:00:32;100760.91;;;5.45;100.00
24825;BME280;12910;57.690;11.974;2023-03-19T06:02:57;100767.81;;;5.48;100.00
24825;BME280;12910;57.690;11.974;2023-03-19T06:05:23;100761.81;;;5.45;100.00
24825;BME280;12910;57.690;11.974;2023-03-19T06:07:49;100760.03;;;5.43;100.00
24825;BME280;12910;57.690;11.974;2023-03-19T06:10:14;100759.19;;;5.44;100.00
24825;BME280;12910;57.690;11.974;2023-03-19T06:12:40;100763.47;;;5.45;100.00
24825;BME280;12910;57.690;11.974;2023-03-19T06:15:06;100766.19;;;5.50;100.00
24825;BME280;12910;57.690;11.974;2023-03-19T06:17:33;100778.00;;;5.48;100.00
24825;BME280;12910;57.690;11.974;2023-03-19T06:19:59;100773.78;;;5.48;100.00
24825;BME280;12910;57.690;11.974;2023-03-19T06:22:24;100771.19;;;5.46;100.00
24825;BME280;12910;57.690;11.974;2023-03-19T06:24:50;100770.28;;;5.46;100.00
24825;BME280;12910;57.690;11.974;2023-03-19T06:27:15;100771.22;;;5.48;100.00
24825;BME280;12910;57.690;11.974;2023-03-19T06:29:41;100762.66;;;5.46;100.00
24825;BME280;12910;57.690;11.974;2023-03-19T06:32:06;100762.47;;;5.41;100.00
24825;BME280;12910;57.690;11.974;2023-03-19T06:34:32;100772.22;;;5.52;100.00
24825;BME280;12910;57.690;11.974;2023-03-19T06:36:57;100773.78;;;5.48;100.00
24825;BME280;12910;57.690;11.974;2023-03-19T06:39:22;100776.50;;;5.53;100.00
24825;BME280;12910;57.690;11.974;2023-03-19T06:41:48;100784.88;;;5.50;100.00
24825;BME280;12910;57.690;11.974;2023-03-19T06:44:13;100790.94;;;5.54;100.00
24825;BME280;12910;57.690;11.974;2023-03-19T06:46:39;100774.69;;;5.50;100.00
24825;BME280;12910;57.690;11.974;2023-03-19T06:49:04;100782.44;;;5.53;100.00
24825;BME280;12910;57.690;11.974;2023-03-19T06:51:31;100787.50;;;5.53;100.00
24825;BME280;12910;57.690;11.974;2023-03-19T06:53:56;100791.00;;;5.55;100.00
24825;BME280;12910;57.690;11.974;2023-03-19T06:56:21;100800.31;;;5.55;100.00
24825;BME280;12910;57.690;11.974;2023-03-19T06:58:47;100796.97;;;5.56;100.00
24825;BME280;12910;57.690;11.974;2023-03-19T07:01:12;100794.47;;;5.57;100.00
24825;BME280;12910;57.690;11.974;2023-03-19T07:03:38;100801.53;;;5.65;100.00
24825;BME280;12910;57.690;11.974;2023-03-19T07:06:03;100790.31;;;5.59;100.00
24825;BME280;12910;57.690;11.974;2023-03-19T07:08:29;100794.69;;;5.64;100.00
24825;BME280;12910;57.690;11.974;2023-03-19T07:11:05;100799.78;;;5.64;100.00
24825;BME280;12910;57.690;11.974;2023-03-19T07:13:31;100799.91;;;5.67;100.00
24825;BME280;12910;57.690;11.974;2023-03-19T07:15:57;100799.06;;;5.66;100.00
24825;BME280;12910;57.690;11.974;2023-03-19T07:18:23;100793.34;;;5.72;100.00
24825;BME280;12910;57.690;11.974;2023-03-19T07:20:48;100802.81;;;5.76;100.00
24825;BME280;12910;57.690;11.974;2023-03-19T07:23:13;100801.19;;;5.78;100.00
24825;BME280;12910;57.690;11.974;2023-03-19T07:25:39;100800.41;;;5.79;100.00
24825;BME280;12910;57.690;11.974;2023-03-19T07:28:04;100786.78;;;5.78;100.00
24825;BME280;12910;57.690;11.974;2023-03-19T07:30:30;100803.97;;;5.84;100.00
24825;BME280;12910;57.690;11.974;2023-03-19T07:32:55;100792.94;;;5.84;100.00
24825;BME280;12910;57.690;11.974;2023-03-19T07:35:21;100806.69;;;5.89;100.00
24825;BME280;12910;57.690;11.974;2023-03-19T07:37:46;100792.31;;;5.89;100.00
24825;BME280;12910;57.690;11.974;2023-03-19T07:40:11;100794.84;;;5.89;100.00
24825;BME280;12910;57.690;11.974;2023-03-19T07:42:37;100797.41;;;5.89;100.00
24825;BME280;12910;57.690;11.974;2023-03-19T07:45:03;100791.59;;;5.93;100.00
24825;BME280;12910;57.690;11.974;2023-03-19T07:47:29;100793.03;;;5.87;100.00
24825;BME280;12910;57.690;11.974;2023-03-19T07:49:55;100799.13;;;5.90;100.00
24825;BME280;12910;57.690;11.974;2023-03-19T07:52:21;100793.34;;;5.95;100.00
24825;BME280;12910;57.690;11.974;2023-03-19T07:54:47;100789.81;;;5.91;100.00
24825;BME280;12910;57.690;11.974;2023-03-19T07:57:12;100794.44;;;6.00;100.00
24825;BME280;12910;57.690;11.974;2023-03-19T07:59:37;100793.66;;;6.02;100.00
24825;BME280;12910;57.690;11.974;2023-03-19T08:02:03;100784.25;;;6.00;100.00
24825;BME280;12910;57.690;11.974;2023-03-19T08:04:28;100793.72;;;6.04;100.00
24825;BME280;12910;57.690;11.974;2023-03-19T08:06:53;100790.31;;;6.03;100.00
24825;BME280;12910;57.690;11.974;2023-03-19T08:09:19;100786.38;;;6.12;100.00
24825;BME280;12910;57.690;11.974;2023-03-19T08:11:44;100791.63;;;6.16;100.00
24825;BME280;12910;57.690;11.974;2023-03-19T08:14:10;100784.63;;;6.11;100.00
24825;BME280;12910;57.690;11.974;2023-03-19T08:16:35;100784.00;;;6.16;100.00
24825;BME280;12910;57.690;11.974;2023-03-19T08:19:01;100773.81;;;6.16;100.00
24825;BME280;12910;57.690;11.974;2023-03-19T08:21:26;100790.22;;;6.24;100.00
24825;BME280;12910;57.690;11.974;2023-03-19T08:23:52;100792.09;;;6.29;100.00
24825;BME280;12910;57.690;11.974;2023-03-19T08:26:17;100793.66;;;6.25;100.00
24825;BME280;12910;57.690;11.974;2023-03-19T08:28:43;100792.31;;;6.35;100.00
24825;BME280;12910;57.690;11.974;2023-03-19T08:31:10;100796.00;;;6.43;100.00
24825;BME280;12910;57.690;11.974;2023-03-19T08:33:36;100785.13;;;6.47;100.00
24825;BME280;12910;57.690;11.974;2023-03-19T08:36:07;100781.81;;;6.50;100.00
24825;BME280;12910;57.690;11.974;2023-03-19T08:38:33;100776.88;;;6.54;100.00
24825;BME280;12910;57.690;11.974;2023-03-19T08:40:58;100778.78;;;6.60;100.00
24825;BME280;12910;57.690;11.974;2023-03-19T08:43:27;100753.25;;;6.59;100.00
24825;BME280;12910;57.690;11.974;2023-03-19T08:45:52;100778.63;;;6.81;100.00
24825;BME280;12910;57.690;11.974;2023-03-19T08:48:18;100784.63;;;6.82;100.00
24825;BME280;12910;57.690;11.974;2023-03-19T08:50:43;100784.00;;;6.89;100.00
24825;BME280;12910;57.690;11.974;2023-03-19T08:53:08;100781.75;;;6.98;100.00
24825;BME280;12910;57.690;11.974;2023-03-19T08:55:34;100783.50;;;6.99;100.00
24825;BME280;12910;57.690;11.974;2023-03-19T08:57:59;100774.97;;;6.99;100.00
24825;BME280;12910;57.690;11.974;2023-03-19T09:00:25;100783.34;;;6.95;100.00
24825;BME280;12910;57.690;11.974;2023-03-19T09:02:52;100780.06;;;6.99;100.00
24825;BME280;12910;57.690;11.974;2023-03-19T09:05:17;100787.94;;;7.05;100.00
24825;BME280;12910;57.690;11.974;2023-03-19T09:07:46;100781.91;;;7.03;100.00
24825;BME280;12910;57.690;11.974;2023-03-19T09:10:12;100765.81;;;7.04;100.00
24825;BME280;12910;57.690;11.974;2023-03-19T09:12:37;100776.59;;;7.23;100.00
24825;BME280;12910;57.690;11.974;2023-03-19T09:15:03;100776.41;;;7.16;100.00
24825;BME280;12910;57.690;11.974;2023-03-19T09:17:29;100781.59;;;7.20;100.00
24825;BME280;12910;57.690;11.974;2023-03-19T09:19:54;100773.13;;;7.21;100.00
24825;BME280;12910;57.690;11.974;2023-03-19T09:22:19;100774.16;;;7.26;100.00
24825;BME280;12910;57.690;11.974;2023-03-19T09:24:45;100782.84;;;7.32;100.00
24825;BME280;12910;57.690;11.974;2023-03-19T09:27:10;100774.47;;;7.35;100.00
24825;BME280;12910;57.690;11.974;2023-03-19T09:29:36;100766.59;;;7.29;100.00
24825;BME280;12910;57.690;11.974;2023-03-19T09:32:01;100755.56;;;7.30;100.00
24825;BME280;12910;57.690;11.974;2023-03-19T09:34:27;100766.88;;;7.38;100.00
24825;BME280;12910;57.690;11.974;2023-03-19T09:36:52;100779.69;;;7.40;100.00
24825;BME280;12910;57.690;11.974;2023-03-19T09:39:18;100772.88;;;7.39;100.00
24825;BME280;12910;57.690;11.974;2023-03-19T09:41:59;100784.06;;;7.44;100.00
24825;BME280;12910;57.690;11.974;2023-03-19T09:44:36;100773.81;;;7.42;100.00
24825;BME280;12910;57.690;11.974;2023-03-19T09:49:55;100779.31;;;7.55;100.00
24825;BME280;12910;57.690;11.974;2023-03-19T09:55:12;100775.91;;;7.56;100.00
24825;BME280;12910;57.690;11.974;2023-03-19T09:57:38;100782.69;;;7.54;100.00
24825;BME280;12910;57.690;11.974;2023-03-19T10:02:42;100779.50;;;7.61;100.00
24825;BME280;12910;57.690;11.974;2023-03-19T10:07:52;100770.09;;;7.60;100.00
24825;BME280;12910;57.690;11.974;2023-03-19T10:10:30;100772.66;;;7.60;100.00
24825;BME280;12910;57.690;11.974;2023-03-19T10:13:08;100771.03;;;7.62;100.00
24825;BME280;12910;57.690;11.974;2023-03-19T10:15:38;100762.47;;;7.60;100.00
24825;BME280;12910;57.690;11.974;2023-03-19T10:18:27;100774.50;;;7.64;100.00
24825;BME280;12910;57.690;11.974;2023-03-19T10:21:14;100775.53;;;7.71;100.00
24825;BME280;12910;57.690;11.974;2023-03-19T10:23:46;100767.94;;;7.72;100.00
24825;BME280;12910;57.690;11.974;2023-03-19T10:26:16;100772.03;;;7.67;100.00
24825;BME280;12910;57.690;11.974;2023-03-19T10:28:44;100760.09;;;7.66;100.00
24825;BME280;12910;57.690;11.974;2023-03-19T10:31:28;100751.53;;;7.64;100.00
24825;BME280;12910;57.690;11.974;2023-03-19T10:36:30;100770.53;;;7.74;100.00
24825;BME280;12910;57.690;11.974;2023-03-19T10:38:57;100757.63;;;7.69;100.00
24825;BME280;12910;57.690;11.974;2023-03-19T10:44:26;100755.94;;;7.70;100.00
24825;BME280;12910;57.690;11.974;2023-03-19T10:46:56;100767.94;;;7.72;100.00
24825;BME280;12910;57.690;11.974;2023-03-19T10:49:21;100764.56;;;7.73;100.00
24825;BME280;12910;57.690;11.974;2023-03-19T10:51:47;100759.47;;;7.73;100.00
24825;BME280;12910;57.690;11.974;2023-03-19T10:54:22;100766.28;;;7.74;100.00
24825;BME280;12910;57.690;11.974;2023-03-19T10:56:48;100761.16;;;7.74;100.00
24825;BME280;12910;57.690;11.974;2023-03-19T10:59:30;100762.19;;;7.79;100.00
24825;BME280;12910;57.690;11.974;2023-03-19T11:02:06;100755.22;;;7.74;100.00
24825;BME280;12910;57.690;11.974;2023-03-19T11:04:38;100758.69;;;7.76;100.00
24825;BME280;12910;57.690;11.974;2023-03-19T11:07:12;100751.16;;;7.80;100.00
24825;BME280;12910;57.690;11.974;2023-03-19T11:09:43;100759.75;;;7.83;100.00
24825;BME280;12910;57.690;11.974;2023-03-19T11:12:31;100749.44;;;7.79;100.00
24825;BME280;12910;57.690;11.974;2023-03-19T11:15:02;100752.91;;;7.82;100.00
24825;BME280;12910;57.690;11.974;2023-03-19T11:17:48;100749.53;;;7.83;100.00
24825;BME280;12910;57.690;11.974;2023-03-19T11:22:40;100746.19;;;7.85;100.00
24825;BME280;12910;57.690;11.974;2023-03-19T11:25:18;100754.00;;;7.90;100.00
24825;BME280;12910;57.690;11.974;2023-03-19T11:27:59;100753.22;;;7.92;100.00
24825;BME280;12910;57.690;11.974;2023-03-19T11:30:31;100742.09;;;7.90;100.00
24825;BME280;12910;57.690;11.974;2023-03-19T11:33:07;100753.25;;;7.94;100.00
24825;BME280;12910;57.690;11.974;2023-03-19T11:35:41;100736.13;;;7.90;100.00
24825;BME280;12910;57.690;11.974;2023-03-19T11:38:26;100735.31;;;7.91;100.00
24825;BME280;12910;57.690;11.974;2023-03-19T11:46:50;100742.75;;;8.14;100.00
24825;BME280;12910;57.690;11.974;2023-03-19T11:52:23;100740.38;;;8.20;100.00
24825;BME280;12910;57.690;11.974;2023-03-19T11:57:39;100728.66;;;8.26;100.00
24825;BME280;12910;57.690;11.974;2023-03-19T12:06:01;100717.06;;;8.39;100.00
24825;BME280;12910;57.690;11.974;2023-03-19T12:11:01;100708.06;;;8.52;100.00
24825;BME280;12910;57.690;11.974;2023-03-19T12:13:41;100706.47;;;8.57;100.00
24825;BME280;12910;57.690;11.974;2023-03-19T12:20:14;100687.03;;;8.63;100.00
24825;BME280;12910;57.690;11.974;2023-03-19T12:27:31;100684.00;;;8.78;100.00
24825;BME280;12910;57.690;11.974;2023-03-19T12:30:44;100674.81;;;8.86;100.00
24825;BME280;12910;57.690;11.974;2023-03-19T12:35:49;100674.56;;;9.12;100.00
24825;BME280;12910;57.690;11.974;2023-03-19T12:41:04;100677.13;;;9.12;100.00
24825;BME280;12910;57.690;11.974;2023-03-19T12:51:56;100662.78;;;9.18;100.00
24825;BME280;12910;57.690;11.974;2023-03-19T12:54:30;100651.63;;;9.15;100.00
24825;BME280;12910;57.690;11.974;2023-03-19T13:00:25;100650.19;;;9.26;100.00
24825;BME280;12910;57.690;11.974;2023-03-19T13:05:36;100634.22;;;9.37;100.00
24825;BME280;12910;57.690;11.974;2023-03-19T13:08:23;100636.81;;;9.40;100.00
24825;BME280;12910;57.690;11.974;2023-03-19T13:10:52;100635.09;;;9.39;100.00
24825;BME280;12910;57.690;11.974;2023-03-19T13:13:34;100628.28;;;9.39;100.00
24825;BME280;12910;57.690;11.974;2023-03-19T13:16:12;100624.03;;;9.40;100.00
24825;BME280;12910;57.690;11.974;2023-03-19T13:19:30;100621.50;;;9.41;100.00
24825;BME280;12910;57.690;11.974;2023-03-19T13:22:03;100611.28;;;9.41;100.00
24825;BME280;12910;57.690;11.974;2023-03-19T13:24:33;100608.88;;;9.49;100.00
24825;BME280;12910;57.690;11.974;2023-03-19T13:26:59;100608.94;;;9.52;100.00
24825;BME280;12910;57.690;11.974;2023-03-19T13:29:27;100612.41;;;9.54;100.00
24825;BME280;12910;57.690;11.974;2023-03-19T13:31:59;100597.88;;;9.55;100.00
24825;BME280;12910;57.690;11.974;2023-03-19T13:34:26;100617.50;;;9.54;100.00
24825;BME280;12910;57.690;11.974;2023-03-19T13:37:15;100614.06;;;9.52;100.00
24825;BME280;12910;57.690;11.974;2023-03-19T13:39:42;100611.47;;;9.50;100.00
24825;BME280;12910;57.690;11.974;2023-03-19T13:42:34;100602.78;;;9.42;100.00
24825;BME280;12910;57.690;11.974;2023-03-19T13:45:26;100605.28;;;9.41;100.00
24825;BME280;12910;57.690;11.974;2023-03-19T13:47:53;100600.91;;;9.35;100.00
24825;BME280;12910;57.690;11.974;2023-03-19T13:50:22;100602.69;;;9.38;100.00
24825;BME280;12910;57.690;11.974;2023-03-19T13:52:51;100599.19;;;9.34;100.00
24825;BME280;12910;57.690;11.974;2023-03-19T14:05:46;100603.81;;;9.52;100.00